Time;durP1;ratioP1;P1;durP2;ratioP2;P2;SDS_P1;SDS_P2;PMS_P1;PMS_P2;Temp;Humidity;BMP_temperature;BMP_pressure;BME280_temperature;BME280_humidity;BME280_pressure;Samples;Min_cycle;Max_cycle;Signal;HPM_P1;HPM_P2
2023/08/23 00:00:51;;;;;;;6.75;5.50;;;28.10;65.40;;;;;;5126167;27;20069;-66
2023/08/23 00:03:17;;;;;;;10.52;5.50;;;28.10;65.70;;;;;;5115619;28;20111;-66
2023/08/23 00:05:43;;;;;;;8.00;5.10;;;28.00;65.80;;;;;;5115068;28;20110;-66
2023/08/23 00:08:09;;;;;;;6.03;4.88;;;28.10;66.20;;;;;;5114599;28;20067;-67
2023/08/23 00:10:35;;;;;;;11.80;5.47;;;28.00;66.20;;;;;;5115432;28;20062;-66
2023/08/23 00:13:00;;;;;;;9.52;5.18;;;28.00;66.20;;;;;;5114685;28;20055;-66
2023/08/23 00:15:26;;;;;;;10.00;4.50;;;27.90;66.40;;;;;;5115394;28;20027;-66
2023/08/23 00:17:51;;;;;;;10.10;5.50;;;28.00;66.70;;;;;;5114764;28;20030;-66
2023/08/23 00:20:17;;;;;;;7.88;4.90;;;27.90;66.60;;;;;;5115188;28;20051;-67
2023/08/23 00:22:43;;;;;;;9.73;5.60;;;27.90;66.70;;;;;;5130996;27;20145;-66
2023/08/23 00:25:08;;;;;;;9.85;5.60;;;27.90;66.80;;;;;;5135419;27;20030;-67
2023/08/23 00:27:34;;;;;;;8.43;5.30;;;27.80;66.90;;;;;;5135632;27;20084;-66
2023/08/23 00:30:00;;;;;;;9.35;5.25;;;27.80;67.00;;;;;;5134967;27;20084;-67
2023/08/23 00:32:25;;;;;;;10.35;5.60;;;27.80;67.10;;;;;;5135587;27;20456;-66
2023/08/23 00:34:51;;;;;;;9.98;5.72;;;27.80;67.40;;;;;;5116866;27;20023;-67
2023/08/23 00:37:16;;;;;;;10.52;5.25;;;27.80;67.40;;;;;;5135192;27;20027;-67
2023/08/23 00:39:43;;;;;;;7.95;5.40;;;27.80;67.20;;;;;;5135480;27;20481;-66
2023/08/23 00:42:08;;;;;;;7.32;4.90;;;27.80;67.40;;;;;;5134747;27;20023;-66
2023/08/23 00:44:34;;;;;;;6.82;5.18;;;27.80;67.50;;;;;;5135095;27;20063;-67
2023/08/23 00:47:00;;;;;;;7.80;5.22;;;27.80;67.60;;;;;;5134586;27;20097;-66
2023/08/23 00:49:25;;;;;;;7.32;5.55;;;27.80;67.70;;;;;;5135273;27;20108;-66
2023/08/23 00:51:51;;;;;;;8.45;5.78;;;27.80;68.00;;;;;;5134994;27;20033;-67
2023/08/23 00:54:17;;;;;;;7.10;5.78;;;27.70;68.20;;;;;;5135221;27;20399;-67
2023/08/23 00:56:43;;;;;;;7.65;5.63;;;27.70;68.20;;;;;;5135144;27;20024;-67
2023/08/23 00:59:09;;;;;;;9.52;5.45;;;27.70;68.50;;;;;;5134671;27;20147;-67
2023/08/23 01:01:35;;;;;;;8.27;5.95;;;27.60;68.50;;;;;;5117072;27;20459;-67
2023/08/23 01:04:01;;;;;;;7.60;5.03;;;27.60;68.80;;;;;;5134591;27;20106;-67
2023/08/23 01:06:46;;;;;;;9.00;5.28;;;27.60;68.90;;;;;;5134937;27;20027;-67
2023/08/23 01:09:30;;;;;;;6.82;5.40;;;27.60;69.00;;;;;;5134544;27;20031;-67
2023/08/23 01:12:28;;;;;;;7.95;5.35;;;27.50;69.10;;;;;;5134517;27;20019;-66
2023/08/23 01:15:10;;;;;;;7.00;5.68;;;27.50;69.30;;;;;;5134120;27;20471;-66
2023/08/23 01:17:41;;;;;;;12.07;6.10;;;27.50;69.30;;;;;;5134640;27;20027;-66
2023/08/23 01:20:09;;;;;;;6.72;6.03;;;27.50;69.50;;;;;;5134253;27;20035;-66
2023/08/23 01:22:38;;;;;;;8.25;5.78;;;27.40;69.70;;;;;;5134364;27;20409;-66
2023/08/23 01:25:04;;;;;;;12.60;6.13;;;27.40;70.00;;;;;;5133834;27;20102;-66
2023/08/23 01:27:32;;;;;;;10.82;6.18;;;27.30;70.30;;;;;;5134100;27;20460;-66
2023/08/23 01:29:58;;;;;;;10.25;5.65;;;27.30;70.60;;;;;;5133752;27;20528;-66
2023/08/23 01:32:36;;;;;;;9.23;5.90;;;27.30;70.60;;;;;;5134501;27;20031;-66
2023/08/23 01:35:11;;;;;;;8.20;5.88;;;27.20;70.80;;;;;;5134031;27;20023;-65
2023/08/23 01:37:39;;;;;;;8.48;5.25;;;27.20;71.10;;;;;;5134345;27;20031;-65
2023/08/23 01:40:09;;;;;;;8.18;5.90;;;27.10;71.40;;;;;;5133954;27;20023;-66
2023/08/23 01:42:36;;;;;;;9.90;5.45;;;27.10;71.70;;;;;;5134215;27;20023;-66
2023/08/23 01:45:02;;;;;;;7.85;5.50;;;27.10;71.80;;;;;;5133557;27;20110;-66
2023/08/23 01:47:28;;;;;;;8.32;5.63;;;27.00;71.90;;;;;;5133939;27;20114;-66
2023/08/23 01:49:54;;;;;;;8.10;6.10;;;27.00;72.20;;;;;;5133145;27;20176;-66
2023/08/23 01:52:19;;;;;;;13.77;5.90;;;27.00;72.50;;;;;;5134192;27;20087;-66
2023/08/23 01:54:45;;;;;;;10.10;5.70;;;27.00;72.50;;;;;;5134119;27;20034;-66
2023/08/23 01:57:11;;;;;;;9.45;6.00;;;26.90;73.30;;;;;;5133270;27;20027;-66
2023/08/23 01:59:37;;;;;;;8.60;6.10;;;26.90;72.90;;;;;;5119682;27;20024;-66
2023/08/23 02:02:03;;;;;;;8.13;6.03;;;26.90;73.30;;;;;;5112821;28;20035;-66
2023/08/23 02:04:29;;;;;;;8.80;6.40;;;26.90;73.40;;;;;;5113026;28;20480;-66
2023/08/23 02:06:54;;;;;;;8.82;5.88;;;26.80;73.70;;;;;;5112899;28;20034;-66
2023/08/23 02:09:20;;;;;;;10.57;5.95;;;26.80;73.90;;;;;;5113275;28;20055;-66
2023/08/23 02:11:45;;;;;;;7.00;6.28;;;26.80;74.00;;;;;;5117067;28;20041;-66
2023/08/23 02:14:11;;;;;;;9.30;6.53;;;26.70;74.20;;;;;;5133307;27;20099;-66
2023/08/23 02:16:37;;;;;;;7.55;6.03;;;26.70;74.40;;;;;;5133863;27;20049;-66
2023/08/23 02:19:02;;;;;;;8.95;5.97;;;26.70;74.30;;;;;;5133426;28;20034;-67
2023/08/23 02:21:29;;;;;;;7.25;5.97;;;26.70;74.50;;;;;;5133765;28;20019;-66
2023/08/23 02:23:55;;;;;;;7.65;6.22;;;26.70;74.80;;;;;;5133369;28;20051;-68
2023/08/23 02:26:20;;;;;;;15.18;6.13;;;26.70;75.00;;;;;;5133408;28;20510;-67
2023/08/23 02:28:46;;;;;;;6.53;5.80;;;26.60;75.10;;;;;;5133680;27;20393;-66
2023/08/23 02:31:12;;;;;;;9.05;5.95;;;26.60;75.10;;;;;;5137142;27;20054;-67
2023/08/23 02:33:37;;;;;;;7.53;5.95;;;26.60;75.20;;;;;;5137827;27;20420;-66
2023/08/23 02:36:03;;;;;;;9.23;6.85;;;26.60;75.20;;;;;;5137235;27;20068;-67
2023/08/23 02:38:29;;;;;;;8.20;6.25;;;26.60;75.50;;;;;;5137801;27;20028;-66
2023/08/23 02:40:58;;;;;;;8.13;6.38;;;26.60;75.70;;;;;;5137527;27;20023;-67
2023/08/23 02:43:23;;;;;;;7.35;6.38;;;26.60;75.80;;;;;;5137488;27;20375;-66
2023/08/23 02:45:49;;;;;;;11.65;6.55;;;26.60;75.90;;;;;;5137367;27;20027;-66
2023/08/23 02:48:15;;;;;;;8.82;6.38;;;26.60;75.80;;;;;;5136849;27;20035;-66
2023/08/23 02:50:42;;;;;;;8.50;6.68;;;26.60;76.10;;;;;;5137764;27;20554;-66
2023/08/23 02:53:08;;;;;;;7.97;6.45;;;26.60;76.10;;;;;;5137160;27;20034;-66
2023/08/23 02:55:36;;;;;;;14.38;6.63;;;26.60;76.10;;;;;;5137498;27;20027;-66
2023/08/23 02:58:02;;;;;;;9.48;6.53;;;26.60;76.50;;;;;;5137050;27;20031;-67
2023/08/23 03:00:27;;;;;;;10.20;7.10;;;26.60;76.10;;;;;;5137208;27;20481;-67
2023/08/23 03:02:53;;;;;;;8.48;6.80;;;26.60;76.10;;;;;;5137289;27;20034;-66
2023/08/23 03:05:19;;;;;;;9.80;6.38;;;26.50;76.00;;;;;;5136884;27;20084;-67
2023/08/23 03:07:44;;;;;;;11.60;7.28;;;26.50;76.10;;;;;;5137189;27;20035;-66
2023/08/23 03:10:10;;;;;;;9.55;5.95;;;26.50;76.20;;;;;;5136756;27;20059;-67
2023/08/23 03:12:36;;;;;;;9.05;6.57;;;26.50;76.30;;;;;;5136895;27;20356;-65
2023/08/23 03:15:03;;;;;;;8.30;6.10;;;26.50;76.50;;;;;;5136733;27;20019;-67
2023/08/23 03:17:28;;;;;;;10.48;6.07;;;26.50;76.60;;;;;;5136960;27;20368;-67
2023/08/23 03:19:56;;;;;;;12.52;6.68;;;26.40;76.70;;;;;;5136840;27;20027;-67
2023/08/23 03:22:21;;;;;;;7.95;6.70;;;26.40;77.10;;;;;;5136509;27;20031;-67
2023/08/23 03:24:47;;;;;;;9.15;6.90;;;26.40;77.30;;;;;;5136999;27;20344;-67
2023/08/23 03:27:12;;;;;;;10.35;6.53;;;26.40;77.50;;;;;;5135866;27;20542;-66
2023/08/23 03:29:38;;;;;;;10.13;6.82;;;26.40;77.60;;;;;;5136788;27;20030;-66
2023/08/23 03:32:04;;;;;;;9.38;6.28;;;26.40;77.60;;;;;;5136387;27;20118;-67
2023/08/23 03:34:29;;;;;;;11.93;6.38;;;26.30;77.70;;;;;;5136790;27;20094;-66
2023/08/23 03:36:55;;;;;;;10.25;7.22;;;26.30;77.90;;;;;;5136757;27;20031;-66
2023/08/23 03:39:21;;;;;;;8.90;6.32;;;26.30;78.10;;;;;;5136299;27;20495;-66
2023/08/23 03:41:47;;;;;;;12.38;6.93;;;26.30;78.40;;;;;;5135316;27;20360;-66
2023/08/23 03:44:13;;;;;;;13.02;7.63;;;26.30;78.60;;;;;;5136142;27;20062;-67
2023/08/23 03:46:38;;;;;;;7.88;6.82;;;26.30;79.00;;;;;;5136718;27;20053;-66
2023/08/23 03:49:04;;;;;;;12.60;7.22;;;26.20;79.20;;;;;;5135888;27;20023;-66
2023/08/23 03:51:29;;;;;;;9.52;6.80;;;26.20;79.50;;;;;;5136512;27;20375;-66
2023/08/23 03:53:55;;;;;;;10.55;7.70;;;26.30;79.50;;;;;;5136704;27;20023;-66
2023/08/23 03:56:21;;;;;;;9.18;7.13;;;26.30;79.60;;;;;;5135986;27;20304;-66
2023/08/23 03:58:46;;;;;;;11.75;7.88;;;26.30;80.20;;;;;;5134738;27;20027;-67
2023/08/23 04:01:12;;;;;;;9.80;7.22;;;26.30;80.50;;;;;;5117295;27;20023;-66
2023/08/23 04:03:38;;;;;;;13.30;7.80;;;26.30;80.60;;;;;;5115656;28;20024;-66
2023/08/23 04:06:03;;;;;;;12.73;7.68;;;26.30;80.90;;;;;;5114981;28;20028;-67
2023/08/23 04:08:29;;;;;;;9.25;7.10;;;26.30;81.00;;;;;;5115471;28;20035;-66
2023/08/23 04:10:54;;;;;;;14.55;8.05;;;26.40;81.10;;;;;;5115256;28;20024;-66
2023/08/23 04:13:20;;;;;;;11.38;7.70;;;26.40;81.10;;;;;;5115341;28;20070;-66
2023/08/23 04:15:46;;;;;;;10.88;7.95;;;26.30;81.30;;;;;;5115592;28;20110;-66
2023/08/23 04:18:12;;;;;;;17.55;8.32;;;26.40;82.30;;;;;;5115073;28;20100;-67
2023/08/23 04:20:38;;;;;;;9.27;7.78;;;26.40;81.60;;;;;;5121547;27;20064;-66
2023/08/23 04:23:05;;;;;;;7.97;7.18;;;26.30;81.70;;;;;;5135501;27;20110;-68
2023/08/23 04:25:30;;;;;;;11.70;8.20;;;26.40;81.90;;;;;;5135825;27;20023;-66
2023/08/23 04:27:56;;;;;;;12.27;8.20;;;26.30;82.30;;;;;;5135635;27;20045;-66
2023/08/23 04:30:22;;;;;;;12.68;7.68;;;26.30;82.30;;;;;;5135576;27;20072;-67
2023/08/23 04:32:47;;;;;;;12.07;7.85;;;26.30;82.50;;;;;;5135674;27;20471;-67
2023/08/23 04:35:13;;;;;;;14.35;7.88;;;26.40;82.50;;;;;;5135534;27;20027;-66
2023/08/23 04:37:38;;;;;;;13.82;8.05;;;26.40;82.50;;;;;;5135582;27;20062;-67
2023/08/23 04:40:08;;;;;;;11.48;7.78;;;26.30;82.80;;;;;;5135373;27;20026;-70
2023/08/23 04:42:36;;;;;;;11.77;7.73;;;26.40;82.90;;;;;;5135779;27;20023;-66
2023/08/23 04:45:02;;;;;;;8.23;7.43;;;26.40;83.10;;;;;;5135400;27;20019;-66
2023/08/23 04:47:30;;;;;;;10.93;8.13;;;26.40;82.90;;;;;;5134763;27;20070;-66
2023/08/23 04:49:55;;;;;;;12.23;8.57;;;26.40;83.00;;;;;;5135063;27;20047;-66
2023/08/23 04:52:21;;;;;;;12.48;8.20;;;26.40;83.60;;;;;;5134376;27;20387;-67
2023/08/23 04:54:47;;;;;;;13.80;8.60;;;26.40;83.00;;;;;;5135212;27;20393;-66
2023/08/23 04:57:12;;;;;;;15.73;8.88;;;26.40;82.90;;;;;;5134838;27;20453;-65
2023/08/23 04:59:38;;;;;;;9.25;8.20;;;26.50;82.90;;;;;;5134953;27;20019;-67
2023/08/23 05:02:04;;;;;;;11.63;7.68;;;26.50;83.20;;;;;;5135059;27;20027;-67
2023/08/23 05:04:30;;;;;;;13.13;7.38;;;26.60;83.30;;;;;;5134299;27;20049;-66
2023/08/23 05:06:55;;;;;;;12.25;7.97;;;26.60;83.20;;;;;;5134896;27;20035;-67
2023/08/23 05:09:21;;;;;;;10.07;7.50;;;26.60;82.50;;;;;;5134190;27;20031;-66
2023/08/23 05:11:47;;;;;;;9.57;8.55;;;26.70;83.10;;;;;;5134836;27;20023;-66
2023/08/23 05:14:13;;;;;;;8.88;7.55;;;26.70;82.30;;;;;;5134286;27;20370;-67
2023/08/23 05:16:38;;;;;;;11.20;7.82;;;26.70;82.20;;;;;;5134904;27;20080;-66
2023/08/23 05:19:04;;;;;;;12.60;8.77;;;26.70;82.50;;;;;;5134509;27;20469;-66
2023/08/23 05:21:30;;;;;;;13.90;8.98;;;26.80;82.40;;;;;;5133919;27;20034;-67
2023/08/23 05:23:55;;;;;;;10.32;7.70;;;26.80;81.60;;;;;;5134455;27;20352;-67
2023/08/23 05:26:21;;;;;;;10.75;7.80;;;26.90;82.00;;;;;;5134110;27;20019;-67
2023/08/23 05:28:47;;;;;;;11.90;8.10;;;27.00;81.10;;;;;;5134387;27;20417;-66
2023/08/23 05:31:14;;;;;;;9.57;7.63;;;27.10;80.70;;;;;;5134027;27;20447;-67
2023/08/23 05:33:41;;;;;;;9.38;7.53;;;27.20;80.50;;;;;;5115944;27;20383;-67
2023/08/23 05:36:07;;;;;;;9.20;8.23;;;27.20;80.60;;;;;;5134121;27;20474;-66
2023/08/23 05:38:32;;;;;;;10.18;7.82;;;27.20;80.30;;;;;;5133925;27;20055;-66
2023/08/23 05:40:58;;;;;;;13.15;7.28;;;27.20;80.50;;;;;;5134274;27;20024;-66
2023/08/23 05:43:23;;;;;;;14.18;8.02;;;27.30;80.10;;;;;;5133981;27;20387;-67
2023/08/23 05:45:54;;;;;;;11.68;7.70;;;27.40;79.70;;;;;;5134335;27;20019;-67
2023/08/23 05:48:20;;;;;;;;;;;27.50;79.50;;;;;;5134092;27;20103;-66
2023/08/23 05:50:46;;;;;;;10.90;7.47;;;27.60;79.50;;;;;;5134187;27;20363;-66
2023/08/23 05:53:18;;;;;;;8.73;7.50;;;27.80;79.00;;;;;;5133952;27;20020;-67
2023/08/23 05:55:47;;;;;;;13.88;7.63;;;28.00;78.80;;;;;;5134248;27;20063;-67
2023/08/23 05:58:13;;;;;;;8.80;7.05;;;28.30;77.60;;;;;;5130319;27;20037;-67
2023/08/23 06:00:38;;;;;;;9.98;7.13;;;28.60;76.20;;;;;;5133943;27;20023;-67
2023/08/23 06:03:04;;;;;;;14.00;7.45;;;28.80;75.50;;;;;;5134011;27;20029;-67
2023/08/23 06:05:30;;;;;;;10.85;7.47;;;29.10;74.30;;;;;;5132884;27;20019;-67
2023/08/23 06:07:55;;;;;;;11.68;7.15;;;29.30;73.20;;;;;;5133945;27;20046;-66
2023/08/23 06:10:21;;;;;;;12.13;7.75;;;29.40;71.40;;;;;;5133462;27;20023;-66
2023/08/23 06:12:47;;;;;;;12.02;7.88;;;29.40;70.50;;;;;;5133903;27;20426;-66
2023/08/23 06:15:13;;;;;;;9.30;7.13;;;29.20;71.30;;;;;;5133011;27;20040;-67
2023/08/23 06:17:38;;;;;;;10.77;7.25;;;29.10;71.50;;;;;;5133429;27;20481;-66
2023/08/23 06:20:05;;;;;;;9.85;7.45;;;29.00;71.90;;;;;;5133670;28;20383;-67
2023/08/23 06:22:30;;;;;;;10.93;7.43;;;28.90;72.50;;;;;;5132838;28;20467;-66
2023/08/23 06:24:56;;;;;;;10.23;7.82;;;28.60;73.00;;;;;;5133643;28;20029;-65
2023/08/23 06:27:21;;;;;;;9.85;6.85;;;28.40;73.40;;;;;;5133121;28;20042;-66
2023/08/23 06:29:47;;;;;;;13.63;7.18;;;28.30;74.00;;;;;;5133747;28;20455;-65
2023/08/23 06:32:13;;;;;;;14.25;7.40;;;28.00;75.40;;;;;;5133430;28;20454;-68
2023/08/23 06:34:39;;;;;;;18.63;7.35;;;27.80;77.40;;;;;;5133876;28;20019;-66
2023/08/23 06:37:05;;;;;;;10.65;7.50;;;27.70;78.90;;;;;;5133513;28;20084;-65
2023/08/23 06:39:30;;;;;;;8.32;7.25;;;27.50;79.20;;;;;;5133164;28;20459;-66
2023/08/23 06:41:56;;;;;;;9.05;7.28;;;27.40;79.40;;;;;;5133568;28;20106;-67
2023/08/23 06:44:22;;;;;;;12.43;7.40;;;27.40;81.30;;;;;;5133058;28;20034;-67
2023/08/23 06:46:47;;;;;;;10.55;7.50;;;27.30;81.80;;;;;;5133547;28;20455;-66
2023/08/23 06:49:13;;;;;;;10.02;7.18;;;27.20;82.10;;;;;;5133540;28;20070;-66
2023/08/23 06:51:39;;;;;;;9.35;6.95;;;27.10;82.40;;;;;;5133511;28;20050;-66
2023/08/23 06:54:04;;;;;;;8.88;7.53;;;27.10;83.20;;;;;;5133597;28;20019;-67
2023/08/23 06:56:30;;;;;;;11.18;7.53;;;27.10;84.20;;;;;;5133190;28;20024;-66
2023/08/23 06:58:56;;;;;;;9.68;7.55;;;27.10;84.90;;;;;;5133072;28;20478;-66
2023/08/23 07:01:22;;;;;;;10.32;7.35;;;27.10;85.00;;;;;;5132597;28;20047;-67
2023/08/23 07:03:48;;;;;;;10.30;7.20;;;27.00;85.10;;;;;;5133204;28;20547;-65
2023/08/23 07:06:15;;;;;;;8.48;7.60;;;26.90;85.30;;;;;;5133225;28;20031;-65
2023/08/23 07:08:41;;;;;;;17.08;7.47;;;26.70;86.10;;;;;;5132870;28;20023;-66
2023/08/23 07:11:07;;;;;;;11.15;7.40;;;26.60;87.10;;;;;;5133082;28;20045;-66
2023/08/23 07:13:34;;;;;;;12.63;7.63;;;26.60;87.00;;;;;;5132449;28;20023;-66
2023/08/23 07:16:00;;;;;;;11.13;8.35;;;26.60;86.60;;;;;;5134702;27;20084;-65
2023/08/23 07:18:26;;;;;;;8.82;7.50;;;26.40;87.60;;;;;;5136304;27;20031;-65
2023/08/23 07:20:51;;;;;;;11.07;7.63;;;26.20;87.80;;;;;;5136846;27;20027;-66
2023/08/23 07:23:17;;;;;;;10.95;6.40;;;26.10;88.90;;;;;;5136513;27;20031;-69
2023/08/23 07:25:44;;;;;;;7.40;6.18;;;26.20;88.30;;;;;;5136803;27;20050;-66
2023/08/23 07:28:09;;;;;;;11.10;6.72;;;26.00;88.30;;;;;;5136243;27;20479;-66
2023/08/23 07:30:35;;;;;;;8.85;6.07;;;25.90;88.80;;;;;;5136648;27;20039;-66
2023/08/23 07:33:01;;;;;;;11.43;6.55;;;25.90;89.40;;;;;;5136958;27;20028;-67
2023/08/23 07:35:26;;;;;;;7.88;6.18;;;25.80;89.90;;;;;;5136184;27;20447;-66
2023/08/23 07:37:52;;;;;;;7.85;6.75;;;25.80;90.40;;;;;;5136645;27;20051;-65
2023/08/23 07:40:17;;;;;;;7.68;6.25;;;25.70;90.30;;;;;;5136545;27;20059;-65
2023/08/23 07:42:43;;;;;;;7.90;6.47;;;25.80;90.40;;;;;;5136016;27;20458;-67
2023/08/23 07:45:09;;;;;;;8.38;6.25;;;25.70;90.60;;;;;;5136348;27;20023;-66
2023/08/23 07:47:35;;;;;;;11.07;7.18;;;25.70;90.90;;;;;;5135943;27;20118;-66
2023/08/23 07:50:02;;;;;;;10.65;6.93;;;25.60;91.60;;;;;;5133456;27;20123;-68
2023/08/23 07:52:28;;;;;;;14.20;7.22;;;25.60;91.90;;;;;;5115295;28;20027;-66
2023/08/23 07:54:54;;;;;;;13.15;7.32;;;25.60;92.50;;;;;;5115454;28;20387;-67
2023/08/23 07:57:19;;;;;;;12.38;6.82;;;25.50;92.50;;;;;;5115349;28;20028;-68
2023/08/23 07:59:45;;;;;;;15.13;7.55;;;25.50;93.10;;;;;;5115616;28;20019;-66
2023/08/23 08:02:11;;;;;;;13.70;8.18;;;25.50;93.60;;;;;;5115656;28;20536;-67
2023/08/23 08:04:37;;;;;;;11.73;7.70;;;25.50;93.50;;;;;;5115120;28;20024;-66
2023/08/23 08:07:03;;;;;;;11.65;8.20;;;25.50;93.80;;;;;;5115374;28;20376;-66
2023/08/23 08:09:28;;;;;;;12.77;7.57;;;25.40;93.90;;;;;;5115019;28;20020;-66
2023/08/23 08:11:54;;;;;;;9.70;7.32;;;25.40;94.10;;;;;;5115147;28;20027;-66
2023/08/23 08:14:19;;;;;;;12.80;7.68;;;25.40;94.10;;;;;;5115275;28;20108;-66
2023/08/23 08:16:45;;;;;;;10.63;7.45;;;25.50;93.60;;;;;;5115110;28;20031;-66
2023/08/23 08:19:11;;;;;;;9.73;7.03;;;25.50;93.10;;;;;;5115214;28;20023;-66
2023/08/23 08:21:36;;;;;;;14.13;7.28;;;25.50;92.90;;;;;;5096301;28;20076;-66
2023/08/23 08:24:02;;;;;;;11.00;7.40;;;25.40;93.20;;;;;;5133036;27;20106;-66
2023/08/23 08:26:28;;;;;;;10.10;7.53;;;25.50;93.20;;;;;;5135188;27;20035;-67
2023/08/23 08:28:54;;;;;;;10.00;7.07;;;25.50;93.20;;;;;;5134616;27;20428;-66
2023/08/23 08:31:20;;;;;;;11.48;6.50;;;25.50;92.80;;;;;;5135408;27;20031;-66
2023/08/23 08:33:46;;;;;;;13.35;6.78;;;25.50;92.70;;;;;;5135054;27;20076;-66
2023/08/23 08:36:13;;;;;;;11.93;6.78;;;25.60;92.50;;;;;;5135517;27;20028;-66
2023/08/23 08:38:39;;;;;;;12.02;7.75;;;25.60;92.80;;;;;;5135106;27;20344;-66
2023/08/23 08:41:05;;;;;;;11.13;6.95;;;25.60;92.40;;;;;;5135013;27;20107;-66
2023/08/23 08:43:31;;;;;;;13.00;7.10;;;25.60;92.40;;;;;;5134846;27;20027;-65
2023/08/23 08:45:57;;;;;;;7.25;6.43;;;25.70;92.60;;;;;;5135227;27;20027;-65
2023/08/23 08:48:23;;;;;;;8.23;6.93;;;25.70;92.50;;;;;;5134886;27;20045;-68
2023/08/23 08:50:50;;;;;;;12.25;6.72;;;25.70;92.20;;;;;;5134674;27;20051;-66
2023/08/23 08:53:18;;;;;;;8.02;6.35;;;25.70;92.00;;;;;;5135055;27;20443;-66
2023/08/23 08:55:47;;;;;;;7.95;6.63;;;25.80;92.00;;;;;;5134687;27;20111;-66
2023/08/23 08:58:19;;;;;;;9.13;6.30;;;25.90;91.70;;;;;;5135040;27;20467;-66
2023/08/23 09:00:49;;;;;;;8.50;6.38;;;25.90;91.60;;;;;;5134488;27;20027;-66
2023/08/23 09:03:17;;;;;;;9.10;6.22;;;25.90;91.50;;;;;;5135195;27;20046;-66
2023/08/23 09:05:44;;;;;;;7.32;6.25;;;25.90;91.40;;;;;;5134393;27;20099;-66
2023/08/23 09:08:10;;;;;;;7.97;6.05;;;25.90;91.40;;;;;;5134559;27;20463;-66
2023/08/23 09:10:35;;;;;;;8.50;5.85;;;25.80;91.80;;;;;;5134559;27;20023;-66
2023/08/23 09:13:01;;;;;;;7.63;5.93;;;26.00;91.80;;;;;;5134240;27;20019;-67
2023/08/23 09:15:27;;;;;;;10.93;6.45;;;26.00;92.20;;;;;;5133978;27;20031;-67
2023/08/23 09:17:54;;;;;;;8.93;6.43;;;26.10;92.20;;;;;;5134316;27;20035;-67
2023/08/23 09:20:21;;;;;;;8.20;6.18;;;26.10;91.90;;;;;;5134613;27;20031;-66
2023/08/23 09:22:54;;;;;;;14.38;5.78;;;26.10;91.70;;;;;;5134046;27;20576;-66
2023/08/23 09:25:20;;;;;;;10.93;6.15;;;26.10;91.70;;;;;;5134419;27;20027;-65
2023/08/23 09:27:46;;;;;;;8.80;5.53;;;26.10;92.00;;;;;;5133783;27;20081;-66
2023/08/23 09:30:12;;;;;;;8.68;6.20;;;26.20;91.90;;;;;;5134432;27;20051;-66
2023/08/23 09:32:39;;;;;;;7.97;5.78;;;26.30;91.30;;;;;;5133921;27;20106;-67
2023/08/23 09:35:12;;;;;;;8.50;5.60;;;26.40;91.40;;;;;;5134406;27;20027;-66
2023/08/23 09:37:47;;;;;;;8.38;5.15;;;26.60;91.10;;;;;;5133845;27;20039;-66
2023/08/23 09:40:20;;;;;;;8.80;6.43;;;26.60;90.70;;;;;;5133851;27;20047;-66
2023/08/23 09:42:46;;;;;;;6.22;5.22;;;26.80;90.10;;;;;;5133796;27;20023;-66
2023/08/23 09:45:21;;;;;;;7.35;5.00;;;26.90;90.10;;;;;;5134206;27;20137;-66
2023/08/23 09:47:59;;;;;;;5.80;4.82;;;27.00;89.50;;;;;;5133664;27;20031;-67
2023/08/23 09:50:25;;;;;;;9.18;5.18;;;27.10;88.30;;;;;;5134143;27;20054;-67
2023/08/23 09:52:57;;;;;;;9.25;4.97;;;27.20;88.00;;;;;;5133686;27;20039;-66
2023/08/23 09:55:25;;;;;;;8.65;5.07;;;27.30;86.70;;;;;;5133260;27;20031;-67
2023/08/23 09:57:54;;;;;;;6.97;5.55;;;27.40;85.90;;;;;;5131001;27;20027;-66
2023/08/23 10:00:22;;;;;;;9.85;5.72;;;27.50;86.00;;;;;;5133520;27;20031;-66
2023/08/23 10:02:47;;;;;;;6.40;5.07;;;27.60;85.70;;;;;;5133405;27;20027;-66
2023/08/23 10:05:13;;;;;;;6.03;4.40;;;27.70;85.80;;;;;;5133955;27;20479;-66
2023/08/23 10:07:40;;;;;;;9.18;5.25;;;27.80;85.50;;;;;;5133455;27;20031;-66
2023/08/23 10:10:07;;;;;;;5.80;5.13;;;27.90;84.60;;;;;;5133580;27;20035;-65
2023/08/23 10:12:36;;;;;;;9.05;5.45;;;27.90;85.30;;;;;;5133112;27;20027;-66
2023/08/23 10:15:03;;;;;;;7.95;5.38;;;28.10;83.90;;;;;;5133404;27;20050;-65
2023/08/23 10:17:30;;;;;;;8.68;4.97;;;28.10;82.30;;;;;;5132870;27;20089;-71
2023/08/23 10:19:57;;;;;;;7.28;5.28;;;28.20;82.30;;;;;;5133663;28;20115;-68
2023/08/23 10:22:23;;;;;;;8.30;5.72;;;28.30;81.40;;;;;;5133620;28;20502;-65
2023/08/23 10:24:50;;;;;;;8.93;5.25;;;28.40;81.40;;;;;;5133363;28;20075;-69
2023/08/23 10:27:17;;;;;;;11.65;5.13;;;28.60;80.90;;;;;;5133290;28;20115;-67
2023/08/23 10:29:48;;;;;;;7.90;5.35;;;28.60;79.70;;;;;;5133008;28;20019;-68
2023/08/23 10:32:14;;;;;;;8.18;5.45;;;28.70;80.10;;;;;;5133111;28;20039;-66
2023/08/23 10:34:43;;;;;;;6.70;5.28;;;28.90;80.70;;;;;;5132818;28;20026;-67
2023/08/23 10:37:16;;;;;;;6.65;5.32;;;29.00;79.80;;;;;;5133564;28;20024;-66
2023/08/23 10:39:48;;;;;;;6.30;5.30;;;29.10;79.00;;;;;;5132972;28;20030;-67
2023/08/23 10:42:14;;;;;;;6.70;5.38;;;29.30;78.40;;;;;;5133202;28;20375;-66
2023/08/23 10:44:52;;;;;;;10.57;5.65;;;29.40;77.00;;;;;;5132820;28;20031;-67
2023/08/23 10:47:18;;;;;;;7.55;5.40;;;29.60;75.60;;;;;;5114958;28;20107;-66
2023/08/23 10:49:46;;;;;;;9.93;5.57;;;29.60;75.00;;;;;;5132990;27;20395;-66
2023/08/23 10:52:12;;;;;;;7.93;5.70;;;29.80;74.70;;;;;;5137011;27;20027;-66
2023/08/23 10:54:38;;;;;;;7.00;5.63;;;29.90;73.90;;;;;;5136995;27;20375;-66
2023/08/23 10:57:04;;;;;;;8.13;5.57;;;30.00;74.50;;;;;;5118983;27;20039;-66
2023/08/23 10:59:29;;;;;;;7.93;5.65;;;30.10;73.30;;;;;;5137328;27;20072;-66
2023/08/23 11:01:55;;;;;;;6.15;5.40;;;30.20;72.30;;;;;;5136796;27;20023;-66
2023/08/23 11:04:23;;;;;;;9.70;5.68;;;30.20;71.90;;;;;;5136966;27;20471;-67
2023/08/23 11:06:49;;;;;;;7.30;6.30;;;30.30;71.30;;;;;;5137003;27;20027;-66
2023/08/23 11:09:18;;;;;;;9.60;5.63;;;30.30;70.10;;;;;;5137140;27;20034;-66
2023/08/23 11:11:44;;;;;;;7.40;5.40;;;30.40;69.70;;;;;;5136540;27;20479;-66
2023/08/23 11:14:10;;;;;;;6.35;5.50;;;30.50;68.70;;;;;;5137144;27;20021;-66
2023/08/23 11:16:38;;;;;;;8.40;5.40;;;30.50;68.30;;;;;;5136401;27;20030;-66
2023/08/23 11:19:05;;;;;;;7.20;5.18;;;30.60;68.90;;;;;;5136792;27;20529;-66
2023/08/23 11:21:35;;;;;;;6.45;5.38;;;30.70;68.00;;;;;;5136697;27;20041;-65
2023/08/23 11:24:04;;;;;;;6.80;5.28;;;30.80;68.60;;;;;;5136810;27;20034;-67
2023/08/23 11:26:36;;;;;;;5.70;4.97;;;30.90;68.40;;;;;;5136910;27;20069;-66
2023/08/23 11:29:05;;;;;;;5.75;5.10;;;31.00;68.80;;;;;;5136811;27;20031;-66
2023/08/23 11:31:35;;;;;;;5.75;4.75;;;30.90;67.70;;;;;;5136588;27;20016;-66
2023/08/23 11:34:09;;;;;;;6.35;4.45;;;30.90;67.80;;;;;;5118589;27;20402;-66
2023/08/23 11:36:37;;;;;;;9.25;4.22;;;30.80;66.00;;;;;;5136720;27;20034;-66
2023/08/23 11:39:06;;;;;;;6.38;4.55;;;30.70;66.50;;;;;;5136729;27;20046;-66
2023/08/23 11:41:33;;;;;;;6.60;5.20;;;30.70;65.80;;;;;;5136631;27;20030;-65
2023/08/23 11:44:07;;;;;;;6.30;4.20;;;30.70;66.10;;;;;;5135830;27;20069;-67
2023/08/23 11:46:38;;;;;;;7.18;5.10;;;30.70;66.60;;;;;;5136244;27;20353;-66
2023/08/23 11:49:06;;;;;;;6.28;4.85;;;30.70;66.80;;;;;;5136022;27;20026;-67
2023/08/23 11:51:50;;;;;;;7.60;4.30;;;30.80;67.20;;;;;;5126031;27;20066;-66
2023/08/23 11:54:16;;;;;;;7.25;4.90;;;30.90;67.40;;;;;;5115728;28;20024;-66
2023/08/23 11:56:43;;;;;;;7.57;5.00;;;31.00;66.70;;;;;;5115227;28;20020;-67
2023/08/23 11:59:10;;;;;;;6.03;4.32;;;31.00;66.80;;;;;;5115670;28;20118;-67
2023/08/23 12:01:38;;;;;;;5.00;4.50;;;31.00;66.60;;;;;;5115193;28;20027;-66
2023/08/23 12:04:03;;;;;;;5.03;4.32;;;30.90;67.90;;;;;;5114922;28;20452;-66
2023/08/23 12:06:29;;;;;;;6.97;4.40;;;30.80;68.00;;;;;;5115166;28;20020;-66
2023/08/23 12:08:55;;;;;;;7.70;4.45;;;30.80;67.10;;;;;;5114744;28;20110;-67
2023/08/23 12:11:20;;;;;;;5.85;4.63;;;30.90;67.20;;;;;;5120370;27;20023;-66
2023/08/23 12:13:46;;;;;;;5.47;4.68;;;30.90;67.20;;;;;;5135585;27;20467;-67
2023/08/23 12:16:12;;;;;;;7.43;5.05;;;30.80;67.70;;;;;;5135880;27;20030;-66
2023/08/23 12:18:37;;;;;;;7.22;4.50;;;30.80;68.10;;;;;;5135960;27;20463;-67
2023/08/23 12:21:04;;;;;;;8.25;4.72;;;30.80;68.60;;;;;;5135925;27;20023;-67
2023/08/23 12:23:30;;;;;;;5.72;4.60;;;30.90;67.90;;;;;;5135878;27;20065;-67
2023/08/23 12:25:56;;;;;;;10.18;5.45;;;30.90;68.40;;;;;;5135293;27;20035;-66
2023/08/23 12:28:22;;;;;;;7.78;5.03;;;30.90;68.40;;;;;;5135746;27;20031;-66
2023/08/23 12:30:48;;;;;;;6.65;5.00;;;30.90;68.00;;;;;;5135266;27;20107;-66
2023/08/23 12:33:13;;;;;;;7.38;4.85;;;31.00;68.00;;;;;;5135261;27;20023;-66
2023/08/23 12:35:39;;;;;;;5.45;4.82;;;31.00;67.40;;;;;;5135180;27;20027;-66
2023/08/23 12:38:04;;;;;;;6.50;4.88;;;31.00;67.30;;;;;;5135250;27;20027;-66
2023/08/23 12:40:30;;;;;;;4.82;4.30;;;31.00;67.40;;;;;;5135350;27;20023;-66